createdAt,value
2018-11-11T00:00:51.186Z,9.43
2018-11-11T00:03:19.299Z,10.30
2018-11-11T00:05:47.393Z,12.27
2018-11-11T00:08:15.525Z,8.20
2018-11-11T00:10:43.625Z,9.23
2018-11-11T00:13:11.738Z,11.80
2018-11-11T00:15:39.867Z,8.70
2018-11-11T00:18:07.964Z,8.33
2018-11-11T00:20:36.058Z,9.40
2018-11-11T00:23:04.176Z,7.40
2018-11-11T00:25:32.302Z,6.00
2018-11-11T00:28:00.405Z,5.53
2018-11-11T00:30:28.521Z,5.80
2018-11-11T00:32:56.618Z,7.40
2018-11-11T00:35:24.718Z,7.50
2018-11-11T00:37:52.823Z,7.17
2018-11-11T00:40:20.914Z,6.13
2018-11-11T00:42:49.019Z,4.97
2018-11-11T00:45:17.126Z,6.20
2018-11-11T00:47:45.729Z,6.40
2018-11-11T00:50:13.827Z,5.27
2018-11-11T00:52:41.958Z,5.40
2018-11-11T00:55:12.270Z,5.00
2018-11-11T00:57:40.647Z,2.60
2018-11-11T01:00:18.887Z,3.17
2018-11-11T01:02:47.370Z,3.80
2018-11-11T01:05:15.830Z,3.37
2018-11-11T01:07:44.140Z,2.60
2018-11-11T01:10:13.947Z,2.60
2018-11-11T01:12:42.898Z,2.03
2018-11-11T01:15:12.582Z,2.40
2018-11-11T01:17:40.759Z,2.00
2018-11-11T01:20:10.596Z,2.00
2018-11-11T01:22:38.763Z,1.33
2018-11-11T01:25:08.775Z,2.10
2018-11-11T01:27:36.987Z,1.90
2018-11-11T01:30:05.232Z,1.47
2018-11-11T01:32:33.354Z,1.50
2018-11-11T01:35:01.858Z,1.80
2018-11-11T01:37:29.992Z,1.50
2018-11-11T01:39:58.115Z,1.60
2018-11-11T01:42:26.230Z,1.50
2018-11-11T01:44:54.362Z,1.40
2018-11-11T01:47:22.490Z,1.50
2018-11-11T01:49:50.663Z,0.93
2018-11-11T01:52:18.814Z,1.60
2018-11-11T01:54:46.939Z,1.50
2018-11-11T01:57:15.071Z,1.00
2018-11-11T01:59:43.210Z,1.17
2018-11-11T02:02:11.362Z,1.47
2018-11-11T02:04:39.499Z,1.60
2018-11-11T02:07:07.638Z,1.63
2018-11-11T02:09:35.804Z,1.50
2018-11-11T02:12:03.946Z,1.50
2018-11-11T02:14:32.091Z,1.50
2018-11-11T02:17:00.203Z,1.60
2018-11-11T02:19:28.322Z,1.30
2018-11-11T02:21:56.462Z,1.77
2018-11-11T02:24:24.591Z,1.50
2018-11-11T02:26:52.739Z,1.93
2018-11-11T02:29:20.857Z,1.23
2018-11-11T02:31:49.055Z,1.63
2018-11-11T02:34:17.174Z,1.20
2018-11-11T02:36:45.295Z,1.40
2018-11-11T02:39:13.423Z,1.40
2018-11-11T02:41:41.554Z,1.97
2018-11-11T02:44:09.670Z,1.60
2018-11-11T02:46:37.822Z,1.70
2018-11-11T02:49:05.945Z,1.60
2018-11-11T02:51:34.068Z,1.40
2018-11-11T02:54:02.230Z,1.40
2018-11-11T02:56:30.326Z,1.60
2018-11-11T02:58:58.538Z,1.60
2018-11-11T03:01:26.627Z,1.57
2018-11-11T03:03:54.739Z,1.57
2018-11-11T03:06:22.826Z,1.43
2018-11-11T03:08:50.943Z,1.70
2018-11-11T03:11:19.038Z,1.47
2018-11-11T03:13:47.150Z,1.70
2018-11-11T03:16:15.270Z,1.80
2018-11-11T03:18:43.385Z,1.30
2018-11-11T03:21:11.471Z,1.40
2018-11-11T03:23:39.619Z,1.93
2018-11-11T03:26:07.930Z,1.40
2018-11-11T03:28:36.072Z,1.80
2018-11-11T03:31:04.254Z,1.20
2018-11-11T03:33:32.347Z,1.70
2018-11-11T03:36:00.442Z,2.00
2018-11-11T03:38:28.579Z,1.90
2018-11-11T03:40:56.703Z,1.90
2018-11-11T03:43:24.799Z,1.50
2018-11-11T03:45:52.887Z,2.00
2018-11-11T03:48:21.031Z,1.63
2018-11-11T03:50:49.113Z,1.80
2018-11-11T03:53:17.227Z,1.40
2018-11-11T03:55:45.347Z,1.43
2018-11-11T03:58:13.443Z,1.37
2018-11-11T04:00:41.589Z,1.70
2018-11-11T04:03:09.723Z,1.33
2018-11-11T04:05:37.918Z,1.37
2018-11-11T04:08:06.062Z,1.60
2018-11-11T04:10:34.239Z,1.40
2018-11-11T04:13:02.334Z,1.87
2018-11-11T04:15:30.460Z,1.87
2018-11-11T04:17:58.602Z,1.17
2018-11-11T04:20:26.711Z,1.20
2018-11-11T04:22:54.823Z,1.97
2018-11-11T04:25:22.960Z,1.90
2018-11-11T04:27:51.083Z,1.23
2018-11-11T04:30:19.243Z,1.10
2018-11-11T04:32:47.386Z,1.70
2018-11-11T04:35:15.442Z,1.57
2018-11-11T04:37:43.543Z,1.90
2018-11-11T04:40:12.542Z,1.60
2018-11-11T04:42:40.631Z,1.60
2018-11-11T04:45:10.947Z,1.60
2018-11-11T04:47:39.071Z,1.97
2018-11-11T04:50:08.622Z,1.80
2018-11-11T04:52:36.713Z,1.37
2018-11-11T04:55:05.128Z,1.90
2018-11-11T04:57:33.241Z,2.23
2018-11-11T05:00:01.359Z,1.80
2018-11-11T05:02:29.458Z,1.80
2018-11-11T05:04:57.582Z,2.43
2018-11-11T05:07:25.719Z,2.10
2018-11-11T05:09:53.810Z,1.97
2018-11-11T05:12:21.919Z,1.80
2018-11-11T05:14:50.030Z,1.77
2018-11-11T05:17:18.138Z,1.70
2018-11-11T05:19:46.258Z,2.00
2018-11-11T05:22:14.354Z,1.90
2018-11-11T05:24:42.475Z,1.77
2018-11-11T05:27:10.590Z,2.87
2018-11-11T05:29:38.694Z,1.93
2018-11-11T05:32:06.869Z,1.80
2018-11-11T05:34:35.144Z,1.77
2018-11-11T05:37:03.292Z,1.77
2018-11-11T05:39:32.230Z,1.73
2018-11-11T05:42:00.323Z,2.03
2018-11-11T05:44:28.424Z,1.80
2018-11-11T05:46:56.633Z,2.03
2018-11-11T05:49:24.730Z,1.90
2018-11-11T05:51:52.822Z,1.80
2018-11-11T05:54:20.941Z,2.27
2018-11-11T05:56:49.068Z,1.80
2018-11-11T05:59:17.166Z,2.30
2018-11-11T06:01:45.274Z,2.73
2018-11-11T06:04:13.401Z,2.53
2018-11-11T06:06:41.547Z,1.80
2018-11-11T06:09:10.466Z,2.47
2018-11-11T06:11:39.133Z,1.50
2018-11-11T06:14:07.335Z,1.70
2018-11-11T06:16:35.572Z,1.60
2018-11-11T06:19:03.789Z,2.03
2018-11-11T06:21:31.902Z,2.67
2018-11-11T06:24:00.031Z,1.80
2018-11-11T06:26:28.158Z,1.90
2018-11-11T06:28:56.469Z,2.10
2018-11-11T06:31:24.574Z,2.30
2018-11-11T06:33:52.704Z,1.77
2018-11-11T06:36:20.825Z,1.70
2018-11-11T06:38:48.961Z,1.67
2018-11-11T06:41:17.079Z,1.67
2018-11-11T06:43:45.193Z,1.87
2018-11-11T06:46:13.317Z,1.97
2018-11-11T06:48:41.474Z,1.73
2018-11-11T06:51:09.599Z,1.87
2018-11-11T06:53:37.862Z,2.17
2018-11-11T06:56:06.017Z,2.13
2018-11-11T06:58:34.230Z,2.70
2018-11-11T07:01:02.327Z,2.00
2018-11-11T07:04:07.110Z,1.67
2018-11-11T07:06:35.291Z,1.97
2018-11-11T07:09:04.912Z,1.40
2018-11-11T07:11:33.043Z,1.63
2018-11-11T07:14:01.181Z,1.80
2018-11-11T07:16:29.246Z,8.33
2018-11-11T07:19:11.551Z,5.97
2018-11-11T07:21:39.654Z,1.80
2018-11-11T07:24:07.772Z,10.40
2018-11-11T07:26:35.901Z,2.60
2018-11-11T07:29:04.000Z,5.47
2018-11-11T07:31:32.135Z,4.63
2018-11-11T07:34:00.256Z,1.40
2018-11-11T07:36:28.361Z,1.60
2018-11-11T07:38:56.483Z,1.40
2018-11-11T07:41:24.677Z,1.40
2018-11-11T07:43:52.793Z,1.50
2018-11-11T07:46:20.914Z,1.67
2018-11-11T07:48:48.999Z,1.27
2018-11-11T07:51:17.095Z,1.47
2018-11-11T07:53:45.214Z,1.20
2018-11-11T07:56:13.355Z,1.07
2018-11-11T07:58:41.484Z,1.00
2018-11-11T08:01:09.627Z,1.70
2018-11-11T08:03:38.120Z,1.30
2018-11-11T08:06:06.246Z,1.20
2018-11-11T08:08:34.372Z,1.10
2018-11-11T08:11:14.011Z,1.10
2018-11-11T08:13:42.023Z,1.20
2018-11-11T08:16:10.168Z,1.00
2018-11-11T08:18:38.287Z,1.10
2018-11-11T08:21:06.406Z,1.00
2018-11-11T08:23:34.515Z,1.20
2018-11-11T08:26:02.605Z,1.00
2018-11-11T08:28:30.718Z,0.80
2018-11-11T08:30:58.802Z,1.20
2018-11-11T08:33:26.905Z,1.00
2018-11-11T08:35:55.049Z,0.70
2018-11-11T08:38:23.152Z,1.30
2018-11-11T08:40:51.263Z,1.20
2018-11-11T08:43:19.455Z,0.80
2018-11-11T08:45:47.555Z,1.10
2018-11-11T08:48:15.745Z,0.80
2018-11-11T08:50:43.802Z,0.97
2018-11-11T08:53:11.950Z,1.10
2018-11-11T08:55:40.091Z,1.37
2018-11-11T08:58:08.239Z,1.40
2018-11-11T09:00:36.360Z,1.03
2018-11-11T09:03:04.944Z,1.20
2018-11-11T09:05:33.058Z,1.40
2018-11-11T09:08:01.188Z,0.93
2018-11-11T09:10:29.340Z,1.20
2018-11-11T09:12:57.461Z,1.00
2018-11-11T09:15:25.606Z,0.80
2018-11-11T09:17:53.742Z,0.80
2018-11-11T09:20:21.886Z,1.00
2018-11-11T09:22:50.006Z,1.10
2018-11-11T09:25:18.140Z,1.37
2018-11-11T09:27:46.274Z,1.30
2018-11-11T09:30:15.335Z,1.20
2018-11-11T09:32:43.544Z,1.20
2018-11-11T09:35:11.746Z,1.15
2018-11-11T09:37:40.304Z,1.45
2018-11-11T09:40:09.327Z,1.30
2018-11-11T09:42:37.537Z,1.35
2018-11-11T09:45:08.296Z,1.50
2018-11-11T09:47:36.433Z,0.90
2018-11-11T09:50:06.882Z,0.83
2018-11-11T09:52:35.083Z,1.80
2018-11-11T09:55:03.187Z,1.20
2018-11-11T09:57:31.362Z,1.30
2018-11-11T09:59:59.550Z,1.37
2018-11-11T10:02:27.641Z,1.03
2018-11-11T10:04:59.229Z,1.23
2018-11-11T10:07:31.082Z,0.90
2018-11-11T10:10:06.043Z,1.13
2018-11-11T10:12:36.183Z,1.60
2018-11-11T10:15:16.609Z,1.40
2018-11-11T10:18:04.727Z,1.73
2018-11-11T10:20:35.769Z,1.20
2018-11-11T10:23:12.871Z,2.20
2018-11-11T10:26:44.994Z,1.70
2018-11-11T10:29:26.191Z,1.77
2018-11-11T10:32:04.748Z,1.67
2018-11-11T10:34:40.815Z,1.77
2018-11-11T10:37:15.625Z,1.47
2018-11-11T10:39:51.312Z,1.40
2018-11-11T10:43:25.688Z,1.70
2018-11-11T10:46:01.856Z,1.70
2018-11-11T10:48:38.264Z,1.43
2018-11-11T10:51:06.943Z,1.63
2018-11-11T10:53:35.195Z,1.50
2018-11-11T10:56:03.333Z,1.70
2018-11-11T10:58:31.530Z,1.47
2018-11-11T11:01:05.227Z,1.40
2018-11-11T11:03:34.525Z,1.60
2018-11-11T11:06:03.373Z,1.67
2018-11-11T11:08:31.700Z,1.67
2018-11-11T11:10:59.933Z,1.30
2018-11-11T11:13:29.026Z,1.92
2018-11-11T11:15:57.635Z,1.85
2018-11-11T11:18:25.798Z,2.50
2018-11-11T11:20:53.901Z,2.02
2018-11-11T11:23:22.023Z,1.87
2018-11-11T11:25:50.253Z,2.50
2018-11-11T11:28:18.233Z,1.87
2018-11-11T11:30:46.376Z,1.82
2018-11-11T11:33:14.496Z,2.00
2018-11-11T11:35:42.868Z,2.37
2018-11-11T11:38:11.015Z,2.02
2018-11-11T11:40:39.126Z,2.10
2018-11-11T11:43:07.252Z,1.80
2018-11-11T11:45:35.380Z,1.60
2018-11-11T11:48:03.481Z,2.00
2018-11-11T11:50:33.377Z,2.00
2018-11-11T11:53:01.510Z,1.50
2018-11-11T11:55:29.543Z,2.00
2018-11-11T11:58:09.540Z,2.00
2018-11-11T12:00:37.554Z,1.90
2018-11-11T12:03:05.788Z,1.93
2018-11-11T12:05:33.876Z,2.20
2018-11-11T12:08:02.018Z,1.77
2018-11-11T12:10:30.132Z,1.60
2018-11-11T12:12:58.239Z,1.90
2018-11-11T12:15:26.356Z,1.70
2018-11-11T12:17:54.459Z,1.87
2018-11-11T12:20:22.583Z,1.62
2018-11-11T12:22:50.679Z,2.12
2018-11-11T12:25:18.803Z,1.50
2018-11-11T12:27:46.902Z,2.10
2018-11-11T12:30:15.107Z,2.00
2018-11-11T12:32:43.203Z,1.70
2018-11-11T12:35:11.369Z,1.67
2018-11-11T12:37:39.479Z,1.67
2018-11-11T12:40:08.973Z,1.55
2018-11-11T12:42:36.863Z,1.75
2018-11-11T12:45:06.092Z,2.02
2018-11-11T12:47:34.318Z,1.72
2018-11-11T12:50:02.528Z,2.00
2018-11-11T12:52:30.614Z,1.95
2018-11-11T12:54:58.727Z,1.85
2018-11-11T12:57:26.840Z,1.55
2018-11-11T12:59:55.181Z,1.92
2018-11-11T13:02:23.455Z,2.15
2018-11-11T13:04:51.596Z,2.20
2018-11-11T13:07:19.718Z,2.05
2018-11-11T13:09:47.951Z,2.20
2018-11-11T13:12:16.197Z,1.55
2018-11-11T13:14:44.207Z,1.72
2018-11-11T13:17:12.323Z,1.82
2018-11-11T13:19:41.749Z,2.08
2018-11-11T13:22:10.001Z,1.77
2018-11-11T13:24:38.166Z,2.22
2018-11-11T13:27:06.557Z,2.20
2018-11-11T13:29:34.730Z,1.90
2018-11-11T13:32:03.033Z,1.90
2018-11-11T13:34:31.185Z,1.80
2018-11-11T13:36:59.535Z,2.55
2018-11-11T13:39:27.751Z,1.67
2018-11-11T13:41:56.673Z,1.67
2018-11-11T13:44:24.966Z,1.70
2018-11-11T13:46:53.167Z,2.58
2018-11-11T13:49:21.374Z,2.25
2018-11-11T13:51:49.684Z,2.08
2018-11-11T13:54:17.865Z,2.15
2018-11-11T13:56:46.026Z,2.00
2018-11-11T13:59:14.215Z,2.37
2018-11-11T14:01:42.502Z,2.40
2018-11-11T14:04:10.621Z,2.92
2018-11-11T14:06:38.945Z,2.95
2018-11-11T14:09:10.929Z,2.22
2018-11-11T14:11:39.193Z,2.10
2018-11-11T14:14:07.927Z,2.85
2018-11-11T14:16:36.240Z,2.47
2018-11-11T14:19:04.960Z,2.70
2018-11-11T14:21:33.659Z,2.47
2018-11-11T14:24:01.887Z,2.40
2018-11-11T14:26:30.309Z,2.75
2018-11-11T14:28:58.437Z,4.05
2018-11-11T14:31:27.621Z,3.53
2018-11-11T14:33:55.986Z,2.52
2018-11-11T14:36:24.256Z,4.33
2018-11-11T14:38:52.444Z,3.60
2018-11-11T14:41:20.741Z,3.00
2018-11-11T14:43:49.000Z,3.43
2018-11-11T14:46:17.392Z,3.27
2018-11-11T14:48:45.888Z,4.00
2018-11-11T14:51:14.073Z,9.50
2018-11-11T14:53:43.886Z,11.83
2018-11-11T14:56:12.421Z,41.07
2018-11-11T14:58:40.723Z,6.33
2018-11-11T15:01:09.628Z,4.90
2018-11-11T15:03:37.859Z,3.00
2018-11-11T15:06:06.165Z,4.47
2018-11-11T15:08:34.327Z,3.03
2018-11-11T15:11:02.553Z,3.47
2018-11-11T15:13:30.833Z,8.65
2018-11-11T15:15:59.125Z,3.80
2018-11-11T15:18:27.416Z,4.53
2018-11-11T15:20:55.997Z,6.58
2018-11-11T15:23:23.966Z,4.30
2018-11-11T15:25:52.223Z,7.67
2018-11-11T15:28:20.407Z,11.63
2018-11-11T15:30:48.681Z,6.80
2018-11-11T15:33:16.788Z,7.25
2018-11-11T15:35:45.118Z,6.50
2018-11-11T15:38:13.289Z,5.62
2018-11-11T15:40:41.464Z,5.77
2018-11-11T15:43:09.659Z,9.15
2018-11-11T15:45:37.943Z,4.20
2018-11-11T15:48:06.592Z,4.17
2018-11-11T15:50:35.712Z,6.10
2018-11-11T15:53:05.306Z,3.90
2018-11-11T15:55:34.809Z,5.80
2018-11-11T15:58:03.025Z,4.90
2018-11-11T16:00:32.548Z,6.27
2018-11-11T16:03:00.791Z,6.53
2018-11-11T16:05:29.014Z,9.13
2018-11-11T16:07:58.041Z,6.70
2018-11-11T16:10:28.340Z,4.50
2018-11-11T16:12:56.716Z,3.90
2018-11-11T16:15:27.788Z,6.07
2018-11-11T16:18:04.116Z,8.05
2018-11-11T16:20:34.261Z,4.47
2018-11-11T16:23:03.636Z,4.23
2018-11-11T16:25:31.927Z,4.80
2018-11-11T16:28:00.067Z,4.30
2018-11-11T16:30:30.508Z,7.00
2018-11-11T16:32:59.411Z,6.80
2018-11-11T16:35:28.495Z,6.70
2018-11-11T16:37:56.876Z,9.13
2018-11-11T16:40:27.212Z,6.33
2018-11-11T16:42:55.585Z,6.33
2018-11-11T16:45:25.930Z,6.73
2018-11-11T16:47:54.313Z,11.57
2018-11-11T16:50:25.756Z,9.80
2018-11-11T16:52:54.741Z,15.03
2018-11-11T16:55:24.430Z,12.70
2018-11-11T16:57:52.561Z,7.40
2018-11-11T17:00:23.269Z,10.80
2018-11-11T17:02:52.145Z,8.23
2018-11-11T17:05:23.466Z,4.37
2018-11-11T17:07:52.109Z,6.20
2018-11-11T17:10:23.523Z,6.33
2018-11-11T17:12:52.810Z,6.93
2018-11-11T17:15:22.689Z,5.13
2018-11-11T17:17:50.916Z,7.07
2018-11-11T17:20:20.285Z,6.30
2018-11-11T17:22:49.375Z,5.80
2018-11-11T17:25:18.497Z,4.27
2018-11-11T17:27:47.000Z,5.53
2018-11-11T17:30:17.380Z,4.37
2018-11-11T17:32:46.307Z,5.40
2018-11-11T17:35:14.481Z,4.97
2018-11-11T17:37:42.922Z,5.63
2018-11-11T17:40:14.143Z,5.77
2018-11-11T17:42:43.682Z,8.20
2018-11-11T17:45:12.364Z,10.97
2018-11-11T17:47:41.187Z,7.00
2018-11-11T17:50:11.377Z,7.13
2018-11-11T17:52:39.968Z,6.33
2018-11-11T17:55:08.460Z,8.53
2018-11-11T17:57:36.632Z,6.63
2018-11-11T18:00:05.509Z,5.47
2018-11-11T18:02:33.872Z,6.03
2018-11-11T18:05:02.037Z,6.83
2018-11-11T18:07:30.279Z,4.30
2018-11-11T18:09:58.505Z,4.70
2018-11-11T18:12:26.709Z,7.57
2018-11-11T18:14:55.154Z,5.97
2018-11-11T18:17:23.558Z,7.60
2018-11-11T18:19:51.673Z,42.87
2018-11-11T18:22:19.887Z,10.07
2018-11-11T18:24:48.106Z,7.87
2018-11-11T18:27:16.376Z,9.20
2018-11-11T18:29:44.485Z,8.93
2018-11-11T18:32:12.797Z,6.90
2018-11-11T18:34:41.025Z,7.20
2018-11-11T18:37:09.291Z,8.03
2018-11-11T18:39:37.599Z,7.90
2018-11-11T18:42:05.837Z,5.20
2018-11-11T18:44:34.052Z,14.00
2018-11-11T18:47:02.240Z,7.83
2018-11-11T18:49:30.512Z,5.70
2018-11-11T18:51:58.732Z,5.03
2018-11-11T18:54:26.945Z,8.93
2018-11-11T18:56:55.218Z,6.77
2018-11-11T18:59:23.360Z,27.40
2018-11-11T19:01:51.553Z,5.80
2018-11-11T19:04:19.860Z,4.40
2018-11-11T19:06:48.177Z,5.27
2018-11-11T19:09:16.406Z,4.20
2018-11-11T19:11:44.596Z,5.40
2018-11-11T19:14:12.794Z,2.80
2018-11-11T19:16:41.012Z,2.50
2018-11-11T19:19:09.180Z,2.80
2018-11-11T19:21:37.487Z,2.53
2018-11-11T19:24:05.624Z,2.30
2018-11-11T19:26:33.952Z,9.00
2018-11-11T19:29:02.192Z,3.50
2018-11-11T19:31:32.649Z,2.10
2018-11-11T19:34:01.030Z,2.13
2018-11-11T19:36:30.513Z,2.83
2018-11-11T19:39:01.074Z,1.57
2018-11-11T19:41:30.564Z,1.40
2018-11-11T19:43:58.731Z,2.10
2018-11-11T19:46:27.604Z,1.80
2018-11-11T19:48:59.197Z,1.10
2018-11-11T19:51:27.458Z,1.13
2018-11-11T19:53:55.689Z,1.10
2018-11-11T19:56:23.901Z,1.33
2018-11-11T19:58:52.105Z,1.87
2018-11-11T20:01:20.588Z,1.50
2018-11-11T20:03:49.167Z,1.30
2018-11-11T20:06:17.365Z,1.90
2018-11-11T20:08:45.604Z,0.87
2018-11-11T20:11:13.860Z,1.50
2018-11-11T20:13:42.043Z,1.53
2018-11-11T20:16:10.220Z,0.90
2018-11-11T20:18:38.403Z,1.10
2018-11-11T20:21:06.685Z,1.70
2018-11-11T20:23:34.954Z,1.90
2018-11-11T20:26:03.230Z,1.90
2018-11-11T20:28:31.489Z,3.13
2018-11-11T20:30:59.732Z,2.13
2018-11-11T20:33:27.938Z,2.77
2018-11-11T20:35:56.175Z,3.33
2018-11-11T20:38:24.425Z,4.47
2018-11-11T20:40:52.657Z,4.93
2018-11-11T20:43:21.040Z,7.33
2018-11-11T20:45:49.218Z,5.03
2018-11-11T20:48:17.495Z,3.93
2018-11-11T20:50:45.732Z,4.20
2018-11-11T20:53:16.910Z,3.30
2018-11-11T20:55:45.207Z,3.23
2018-11-11T20:58:13.342Z,5.47
2018-11-11T21:00:41.540Z,2.60
2018-11-11T21:03:09.752Z,3.30
2018-11-11T21:05:37.941Z,2.03
2018-11-11T21:08:06.614Z,1.60
2018-11-11T21:10:35.410Z,2.17
2018-11-11T21:13:04.916Z,2.90
2018-11-11T21:15:33.511Z,18.93
2018-11-11T21:18:01.755Z,9.17
2018-11-11T21:20:32.016Z,5.43
2018-11-11T21:23:00.276Z,6.00
2018-11-11T21:25:28.581Z,5.73
2018-11-11T21:27:56.725Z,4.97
2018-11-11T21:30:28.221Z,5.80
2018-11-11T21:32:56.432Z,6.10
2018-11-11T21:35:24.764Z,6.17
2018-11-11T21:37:53.047Z,4.83
2018-11-11T21:40:22.530Z,3.03
2018-11-11T21:42:51.533Z,2.60
2018-11-11T21:45:20.896Z,3.27
2018-11-11T21:47:49.160Z,4.03
2018-11-11T21:50:18.806Z,3.97
2018-11-11T21:52:52.260Z,3.40
2018-11-11T21:55:20.430Z,5.57
2018-11-11T21:57:48.614Z,6.30
2018-11-11T22:00:16.836Z,6.80
2018-11-11T22:02:45.084Z,7.17
2018-11-11T22:05:13.273Z,4.73
2018-11-11T22:07:41.590Z,9.90
2018-11-11T22:10:11.861Z,8.17
2018-11-11T22:12:40.096Z,8.97
2018-11-11T22:15:09.448Z,5.10
2018-11-11T22:17:37.783Z,9.63
2018-11-11T22:20:06.994Z,9.30
2018-11-11T22:22:35.284Z,10.97
2018-11-11T22:25:04.045Z,8.37
2018-11-11T22:27:32.265Z,11.10
2018-11-11T22:30:00.481Z,9.97
2018-11-11T22:32:28.705Z,12.07
2018-11-11T22:34:56.952Z,11.83
2018-11-11T22:37:25.204Z,8.87
2018-11-11T22:39:53.439Z,7.97
2018-11-11T22:42:21.812Z,4.77
2018-11-11T22:44:49.961Z,8.00
2018-11-11T22:47:18.209Z,8.07
2018-11-11T22:49:46.469Z,7.67
2018-11-11T22:52:14.678Z,9.70
2018-11-11T22:54:42.949Z,7.10
2018-11-11T22:57:11.188Z,5.47
2018-11-11T22:59:39.397Z,6.83
2018-11-11T23:02:07.609Z,11.90
2018-11-11T23:04:35.866Z,15.27
2018-11-11T23:07:04.107Z,8.50
2018-11-11T23:09:32.310Z,7.50
2018-11-11T23:12:00.527Z,5.90
2018-11-11T23:14:28.756Z,8.57
2018-11-11T23:16:56.973Z,8.23
2018-11-11T23:19:25.180Z,6.10
2018-11-11T23:21:53.395Z,4.57
2018-11-11T23:24:21.593Z,6.70
2018-11-11T23:26:49.852Z,6.23
2018-11-11T23:29:18.086Z,10.97
2018-11-11T23:31:46.366Z,12.17
2018-11-11T23:34:14.577Z,13.73
2018-11-11T23:36:42.880Z,12.30
2018-11-11T23:39:11.334Z,12.20
2018-11-11T23:41:39.549Z,12.57
2018-11-11T23:44:08.655Z,12.23
2018-11-11T23:46:37.390Z,10.80
2018-11-11T23:49:06.159Z,13.03
2018-11-11T23:51:34.419Z,9.53
2018-11-11T23:54:02.661Z,7.73
2018-11-11T23:56:30.872Z,8.17
2018-11-11T23:58:59.164Z,8.77
